sensor_id;sensor_type;location;lat;lon;timestamp;pressure;altitude;pressure_sealevel;temperature;humidity
4528;BME280;62320;51.520;6.818;2022-09-09T00:03:43;100366.75;;;16.38;88.15
4528;BME280;62320;51.520;6.818;2022-09-09T00:14:03;100356.44;;;16.35;89.50
4528;BME280;62320;51.520;6.818;2022-09-09T00:19:07;100354.13;;;16.24;90.65
4528;BME280;62320;51.520;6.818;2022-09-09T00:24:19;100359.31;;;16.26;89.88
4528;BME280;62320;51.520;6.818;2022-09-09T00:29:35;100369.22;;;16.15;89.48
4528;BME280;62320;51.520;6.818;2022-09-09T00:34:53;100364.28;;;16.06;90.91
4528;BME280;62320;51.520;6.818;2022-09-09T00:39:59;100359.94;;;16.05;90.64
4528;BME280;62320;51.520;6.818;2022-09-09T00:50:39;100354.97;;;15.96;89.49
4528;BME280;62320;51.520;6.818;2022-09-09T00:56:03;100358.72;;;15.87;91.29
4528;BME280;62320;51.520;6.818;2022-09-09T01:01:11;100363.66;;;15.96;90.51
4528;BME280;62320;51.520;6.818;2022-09-09T01:06:19;100363.66;;;15.96;90.06
4528;BME280;62320;51.520;6.818;2022-09-09T01:11:26;100368.63;;;16.05;90.63
4528;BME280;62320;51.520;6.818;2022-09-09T01:16:28;100349.16;;;15.86;92.52
4528;BME280;62320;51.520;6.818;2022-09-09T01:27:03;100350.16;;;15.82;92.15
4528;BME280;62320;51.520;6.818;2022-09-09T01:37:42;100338.25;;;15.72;91.82
4528;BME280;62320;51.520;6.818;2022-09-09T01:42:43;100347.25;;;15.62;91.85
4528;BME280;62320;51.520;6.818;2022-09-09T01:47:45;100344.81;;;15.56;92.05
4528;BME280;62320;51.520;6.818;2022-09-09T01:52:50;100344.78;;;15.57;91.96
4528;BME280;62320;51.520;6.818;2022-09-09T01:58:20;100339.03;;;15.43;93.57
4528;BME280;62320;51.520;6.818;2022-09-09T02:03:28;100329.50;;;15.42;92.78
4528;BME280;62320;51.520;6.818;2022-09-09T02:08:47;100334.66;;;15.45;92.01
4528;BME280;62320;51.520;6.818;2022-09-09T02:13:56;100331.94;;;15.50;92.96
4528;BME280;62320;51.520;6.818;2022-09-09T02:19:08;100337.19;;;15.48;91.93
4528;BME280;62320;51.520;6.818;2022-09-09T02:24:13;100343.16;;;15.53;92.77
4528;BME280;62320;51.520;6.818;2022-09-09T02:29:21;100344.66;;;15.62;92.70
4528;BME280;62320;51.520;6.818;2022-09-09T02:34:25;100342.03;;;15.62;92.97
4528;BME280;62320;51.520;6.818;2022-09-09T02:39:28;100325.75;;;15.54;92.20
4528;BME280;62320;51.520;6.818;2022-09-09T02:44:30;100337.63;;;15.64;93.49
4528;BME280;62320;51.520;6.818;2022-09-09T02:54:58;100340.97;;;15.69;91.90
4528;BME280;62320;51.520;6.818;2022-09-09T03:00:01;100342.66;;;15.72;93.14
4528;BME280;62320;51.520;6.818;2022-09-09T03:05:05;100337.44;;;15.72;91.94
4528;BME280;62320;51.520;6.818;2022-09-09T03:10:08;100333.97;;;15.71;92.27
4528;BME280;62320;51.520;6.818;2022-09-09T03:15:09;100334.78;;;15.73;90.26
4528;BME280;62320;51.520;6.818;2022-09-09T03:20:11;100334.94;;;15.67;92.63
4528;BME280;62320;51.520;6.818;2022-09-09T03:25:13;100332.47;;;15.62;91.49
4528;BME280;62320;51.520;6.818;2022-09-09T03:30:15;100326.16;;;15.71;92.23
4528;BME280;62320;51.520;6.818;2022-09-09T03:35:16;100329.06;;;15.60;91.34
4528;BME280;62320;51.520;6.818;2022-09-09T03:40:18;100322.13;;;15.59;93.05
4528;BME280;62320;51.520;6.818;2022-09-09T03:45:21;100325.47;;;15.63;91.91
4528;BME280;62320;51.520;6.818;2022-09-09T03:50:22;100324.81;;;15.56;92.28
4528;BME280;62320;51.520;6.818;2022-09-09T03:55:24;100316.16;;;15.56;92.36
4528;BME280;62320;51.520;6.818;2022-09-09T04:00:25;100318.16;;;15.46;91.63
4528;BME280;62320;51.520;6.818;2022-09-09T04:05:27;100328.44;;;15.51;91.45
4528;BME280;62320;51.520;6.818;2022-09-09T04:10:29;100331.94;;;15.50;91.48
4528;BME280;62320;51.520;6.818;2022-09-09T04:15:31;100316.47;;;15.44;92.17
4528;BME280;62320;51.520;6.818;2022-09-09T04:20:33;100312.97;;;15.45;93.08
4528;BME280;62320;51.520;6.818;2022-09-09T04:25:35;100327.47;;;15.55;91.59
4528;BME280;62320;51.520;6.818;2022-09-09T04:30:36;100331.75;;;15.57;91.13
4528;BME280;62320;51.520;6.818;2022-09-09T04:35:38;100330.88;;;15.57;92.77
4528;BME280;62320;51.520;6.818;2022-09-09T04:40:43;100335.22;;;15.56;90.33
4528;BME280;62320;51.520;6.818;2022-09-09T04:45:47;100329.75;;;15.67;91.69
4528;BME280;62320;51.520;6.818;2022-09-09T04:51:00;100333.34;;;15.61;92.45
4528;BME280;62320;51.520;6.818;2022-09-09T04:56:04;100333.19;;;15.67;92.83
4528;BME280;62320;51.520;6.818;2022-09-09T05:01:08;100340.97;;;15.69;92.25
4528;BME280;62320;51.520;6.818;2022-09-09T05:06:12;100341.66;;;15.76;91.88
4528;BME280;62320;51.520;6.818;2022-09-09T05:11:22;100336.38;;;15.79;92.35
4528;BME280;62320;51.520;6.818;2022-09-09T05:16:25;100336.25;;;15.83;90.53
4528;BME280;62320;51.520;6.818;2022-09-09T05:21:27;100326.50;;;15.90;92.52
4528;BME280;62320;51.520;6.818;2022-09-09T05:26:29;100319.56;;;15.89;91.79
4528;BME280;62320;51.520;6.818;2022-09-09T05:31:32;100300.56;;;15.84;93.53
4528;BME280;62320;51.520;6.818;2022-09-09T05:36:34;100315.81;;;15.97;90.47
4528;BME280;62320;51.520;6.818;2022-09-09T05:41:35;100318.41;;;15.97;92.37
4528;BME280;62320;51.520;6.818;2022-09-09T05:46:37;100317.34;;;16.04;92.14
4528;BME280;62320;51.520;6.818;2022-09-09T05:51:39;100319.19;;;16.01;90.36
4528;BME280;62320;51.520;6.818;2022-09-09T05:56:41;100318.25;;;16.03;91.17
4528;BME280;62320;51.520;6.818;2022-09-09T06:01:43;100318.25;;;16.03;91.28
4528;BME280;62320;51.520;6.818;2022-09-09T06:06:46;100325.91;;;16.09;90.88
4528;BME280;62320;51.520;6.818;2022-09-09T06:11:47;100331.69;;;16.19;91.71
4528;BME280;62320;51.520;6.818;2022-09-09T06:16:49;100329.09;;;16.19;91.62
4528;BME280;62320;51.520;6.818;2022-09-09T06:21:51;100328.75;;;16.29;91.69
4528;BME280;62320;51.520;6.818;2022-09-09T06:26:52;100330.22;;;16.39;92.33
4528;BME280;62320;51.520;6.818;2022-09-09T06:31:54;100295.25;;;16.16;89.38
4528;BME280;62320;51.520;6.818;2022-09-09T06:36:56;100323.06;;;16.44;91.94
4528;BME280;62320;51.520;6.818;2022-09-09T06:42:00;100333.00;;;16.63;92.08
4528;BME280;62320;51.520;6.818;2022-09-09T06:47:01;100335.09;;;16.78;91.38
4528;BME280;62320;51.520;6.818;2022-09-09T06:52:03;100343.44;;;16.89;91.18
4528;BME280;62320;51.520;6.818;2022-09-09T07:04:28;100339.53;;;17.02;90.05
4528;BME280;62320;51.520;6.818;2022-09-09T07:09:30;100343.41;;;17.17;90.68
4528;BME280;62320;51.520;6.818;2022-09-09T07:14:32;100353.63;;;17.23;89.82
4528;BME280;62320;51.520;6.818;2022-09-09T07:19:37;100347.19;;;17.33;88.11
4528;BME280;62320;51.520;6.818;2022-09-09T07:24:38;100350.94;;;17.50;89.49
4528;BME280;62320;51.520;6.818;2022-09-09T07:29:39;100349.78;;;17.59;88.47
4528;BME280;62320;51.520;6.818;2022-09-09T07:34:41;100357.91;;;17.76;85.92
4528;BME280;62320;51.520;6.818;2022-09-09T07:39:42;100360.84;;;17.90;84.55
4528;BME280;62320;51.520;6.818;2022-09-09T07:44:44;100357.91;;;17.99;84.33
4528;BME280;62320;51.520;6.818;2022-09-09T07:49:46;100351.50;;;18.08;82.75
4528;BME280;62320;51.520;6.818;2022-09-09T07:54:48;100348.09;;;18.06;82.27
4528;BME280;62320;51.520;6.818;2022-09-09T07:59:49;100364.84;;;18.23;81.55
4528;BME280;62320;51.520;6.818;2022-09-09T08:04:51;100368.78;;;18.35;80.42
4528;BME280;62320;51.520;6.818;2022-09-09T08:09:53;100372.19;;;18.37;80.22
4528;BME280;62320;51.520;6.818;2022-09-09T08:14:56;100378.28;;;18.37;78.87
4528;BME280;62320;51.520;6.818;2022-09-09T08:19:57;100366.94;;;18.37;77.16
4528;BME280;62320;51.520;6.818;2022-09-09T08:25:02;100371.25;;;18.38;77.66
4528;BME280;62320;51.520;6.818;2022-09-09T08:30:07;100379.72;;;18.44;76.84
4528;BME280;62320;51.520;6.818;2022-09-09T08:35:09;100362.59;;;18.36;76.09
4528;BME280;62320;51.520;6.818;2022-09-09T08:40:19;100381.19;;;18.53;77.04
4528;BME280;62320;51.520;6.818;2022-09-09T08:45:37;100377.25;;;18.65;75.79
4528;BME280;62320;51.520;6.818;2022-09-09T08:50:44;100373.28;;;18.76;75.93
4528;BME280;62320;51.520;6.818;2022-09-09T08:55:54;100373.16;;;19.01;73.33
4528;BME280;62320;51.520;6.818;2022-09-09T09:11:48;100379.84;;;19.50;71.29
4528;BME280;62320;51.520;6.818;2022-09-09T09:17:02;100385.41;;;19.42;72.82
4528;BME280;62320;51.520;6.818;2022-09-09T09:27:43;100395.06;;;19.42;70.94
4528;BME280;62320;51.520;6.818;2022-09-09T09:33:12;100393.22;;;19.44;70.54
4528;BME280;62320;51.520;6.818;2022-09-09T09:38:22;100396.72;;;19.44;72.20
4528;BME280;62320;51.520;6.818;2022-09-09T09:43:53;100395.13;;;19.40;71.53
4528;BME280;62320;51.520;6.818;2022-09-09T09:49:03;100403.13;;;19.37;71.68
4528;BME280;62320;51.520;6.818;2022-09-09T09:54:14;100397.31;;;19.29;71.50
4528;BME280;62320;51.520;6.818;2022-09-09T09:59:36;100401.56;;;19.32;72.04
4528;BME280;62320;51.520;6.818;2022-09-09T10:04:41;100399.81;;;19.32;71.79
4528;BME280;62320;51.520;6.818;2022-09-09T10:09:42;100396.72;;;19.44;71.48
4528;BME280;62320;51.520;6.818;2022-09-09T10:30:12;100387.19;;;19.82;69.37
4528;BME280;62320;51.520;6.818;2022-09-09T10:36:13;100383.00;;;19.78;69.88
4528;BME280;62320;51.520;6.818;2022-09-09T10:41:19;100375.13;;;19.78;68.47
4528;BME280;62320;51.520;6.818;2022-09-09T10:46:35;100348.19;;;19.54;68.35
4528;BME280;62320;51.520;6.818;2022-09-09T10:57:22;100359.13;;;19.64;67.22
4528;BME280;62320;51.520;6.818;2022-09-09T11:02:28;100377.16;;;19.71;69.26
4528;BME280;62320;51.520;6.818;2022-09-09T11:07:36;100372.81;;;19.70;68.17
4528;BME280;62320;51.520;6.818;2022-09-09T11:12:41;100375.91;;;19.80;67.04
4528;BME280;62320;51.520;6.818;2022-09-09T11:17:50;100367.06;;;19.82;69.30
4528;BME280;62320;51.520;6.818;2022-09-09T11:38:46;100362.75;;;20.00;69.04
4528;BME280;62320;51.520;6.818;2022-09-09T11:43:51;100357.09;;;20.09;67.92
4528;BME280;62320;51.520;6.818;2022-09-09T11:49:05;100350.72;;;20.33;66.19
4528;BME280;62320;51.520;6.818;2022-09-09T11:54:31;100354.34;;;20.31;67.94
4528;BME280;62320;51.520;6.818;2022-09-09T11:59:33;100355.00;;;20.36;66.50
4528;BME280;62320;51.520;6.818;2022-09-09T12:04:37;100359.34;;;20.37;67.82
4528;BME280;62320;51.520;6.818;2022-09-09T12:09:48;100351.50;;;20.35;66.34
4528;BME280;62320;51.520;6.818;2022-09-09T12:20:19;100344.44;;;20.37;66.54
4528;BME280;62320;51.520;6.818;2022-09-09T12:36:27;100367.00;;;20.41;66.91
4528;BME280;62320;51.520;6.818;2022-09-09T12:41:29;100363.94;;;20.32;67.55
4528;BME280;62320;51.520;6.818;2022-09-09T12:46:39;100389.56;;;20.27;72.03
4528;BME280;62320;51.520;6.818;2022-09-09T12:51:43;100389.88;;;20.19;73.55
4528;BME280;62320;51.520;6.818;2022-09-09T12:56:46;100392.50;;;20.19;74.52
4528;BME280;62320;51.520;6.818;2022-09-09T13:01:58;100398.88;;;20.14;74.41
4528;BME280;62320;51.520;6.818;2022-09-09T13:07:07;100397.16;;;20.13;75.48
4528;BME280;62320;51.520;6.818;2022-09-09T13:12:23;100388.09;;;20.01;75.05
4528;BME280;62320;51.520;6.818;2022-09-09T13:17:26;100383.59;;;19.84;77.34
4528;BME280;62320;51.520;6.818;2022-09-09T13:27:36;100362.72;;;19.81;80.02
4528;BME280;62320;51.520;6.818;2022-09-09T13:32:40;100360.84;;;19.65;79.56
4528;BME280;62320;51.520;6.818;2022-09-09T13:37:41;100356.56;;;19.82;80.08
4528;BME280;62320;51.520;6.818;2022-09-09T13:42:44;100354.59;;;19.87;78.13
4528;BME280;62320;51.520;6.818;2022-09-09T13:47:46;100334.63;;;19.83;78.74
4528;BME280;62320;51.520;6.818;2022-09-09T13:52:53;100341.88;;;19.97;78.08
4528;BME280;62320;51.520;6.818;2022-09-09T13:58:00;100346.59;;;20.09;77.70
4528;BME280;62320;51.520;6.818;2022-09-09T14:03:02;100339.03;;;20.22;77.13
4528;BME280;62320;51.520;6.818;2022-09-09T14:08:05;100324.06;;;20.24;75.96
4528;BME280;62320;51.520;6.818;2022-09-09T14:13:07;100328.94;;;20.31;75.29
4528;BME280;62320;51.520;6.818;2022-09-09T14:18:11;100325.63;;;20.28;74.57
4528;BME280;62320;51.520;6.818;2022-09-09T14:23:14;100327.47;;;20.26;74.66
4528;BME280;62320;51.520;6.818;2022-09-09T14:28:16;100325.94;;;20.20;75.20
4528;BME280;62320;51.520;6.818;2022-09-09T14:33:26;100326.94;;;20.18;76.45
4528;BME280;62320;51.520;6.818;2022-09-09T14:38:31;100329.84;;;20.12;76.46
4528;BME280;62320;51.520;6.818;2022-09-09T14:43:34;100335.72;;;19.98;76.65
4528;BME280;62320;51.520;6.818;2022-09-09T14:48:36;100352.75;;;19.89;75.78
4528;BME280;62320;51.520;6.818;2022-09-09T14:53:39;100360.31;;;19.57;76.31
4528;BME280;62320;51.520;6.818;2022-09-09T14:58:40;100376.94;;;19.36;75.88
4528;BME280;62320;51.520;6.818;2022-09-09T15:03:48;100361.25;;;18.92;76.82
4528;BME280;62320;51.520;6.818;2022-09-09T15:08:51;100373.69;;;18.66;79.29
4528;BME280;62320;51.520;6.818;2022-09-09T15:13:53;100352.94;;;18.61;78.72
4528;BME280;62320;51.520;6.818;2022-09-09T15:18:57;100368.28;;;18.48;80.03
4528;BME280;62320;51.520;6.818;2022-09-09T15:23:59;100351.97;;;18.17;81.78
4528;BME280;62320;51.520;6.818;2022-09-09T15:29:00;100328.72;;;18.10;82.37
4528;BME280;62320;51.520;6.818;2022-09-09T15:34:06;100338.34;;;18.09;83.23
4528;BME280;62320;51.520;6.818;2022-09-09T15:39:10;100338.50;;;18.05;84.34
4528;BME280;62320;51.520;6.818;2022-09-09T15:44:17;100340.16;;;18.07;83.87
4528;BME280;62320;51.520;6.818;2022-09-09T15:49:25;100334.75;;;18.12;84.51
4528;BME280;62320;51.520;6.818;2022-09-09T15:54:26;100355.25;;;18.24;86.73
4528;BME280;62320;51.520;6.818;2022-09-09T15:59:29;100341.72;;;18.34;86.76
4528;BME280;62320;51.520;6.818;2022-09-09T16:04:31;100310.16;;;18.16;86.17
4528;BME280;62320;51.520;6.818;2022-09-09T16:09:33;100357.06;;;18.45;87.08
4528;BME280;62320;51.520;6.818;2022-09-09T16:14:36;100352.75;;;18.42;86.96
4528;BME280;62320;51.520;6.818;2022-09-09T16:19:37;100360.59;;;18.42;85.82
4528;BME280;62320;51.520;6.818;2022-09-09T16:24:42;100359.78;;;18.42;85.24
4528;BME280;62320;51.520;6.818;2022-09-09T16:29:55;100358.94;;;18.40;85.13
4528;BME280;62320;51.520;6.818;2022-09-09T16:34:57;100357.25;;;18.39;84.22
4528;BME280;62320;51.520;6.818;2022-09-09T16:39:58;100354.38;;;18.23;84.11
4528;BME280;62320;51.520;6.818;2022-09-09T16:45:00;100361.03;;;18.32;85.24
4528;BME280;62320;51.520;6.818;2022-09-09T16:50:02;100350.91;;;18.23;84.83
4528;BME280;62320;51.520;6.818;2022-09-09T16:55:04;100349.25;;;18.20;85.35
4528;BME280;62320;51.520;6.818;2022-09-09T17:00:06;100353.44;;;18.24;85.01
4528;BME280;62320;51.520;6.818;2022-09-09T17:05:08;100355.53;;;18.16;86.49
4528;BME280;62320;51.520;6.818;2022-09-09T17:10:10;100354.56;;;18.19;86.22
4528;BME280;62320;51.520;6.818;2022-09-09T17:15:11;100352.66;;;18.22;86.64
4528;BME280;62320;51.520;6.818;2022-09-09T17:20:13;100351.25;;;18.14;86.80
4528;BME280;62320;51.520;6.818;2022-09-09T17:25:17;100364.44;;;18.11;87.30
4528;BME280;62320;51.520;6.818;2022-09-09T17:30:18;100370.78;;;18.05;87.40
4528;BME280;62320;51.520;6.818;2022-09-09T17:35:20;100362.97;;;18.04;86.87
4528;BME280;62320;51.520;6.818;2022-09-09T17:40:21;100364.13;;;17.97;87.49
4528;BME280;62320;51.520;6.818;2022-09-09T17:45:23;100369.56;;;17.91;87.75
4528;BME280;62320;51.520;6.818;2022-09-09T17:50:24;100372.31;;;17.88;87.61
4528;BME280;62320;51.520;6.818;2022-09-09T17:55:26;100377.72;;;17.81;87.52
4528;BME280;62320;51.520;6.818;2022-09-09T18:00:27;100380.50;;;17.77;88.05
4528;BME280;62320;51.520;6.818;2022-09-09T18:05:31;100389.13;;;17.80;87.58
4528;BME280;62320;51.520;6.818;2022-09-09T18:10:32;100379.81;;;17.72;88.16
4528;BME280;62320;51.520;6.818;2022-09-09T18:15:37;100392.78;;;17.75;89.15
4528;BME280;62320;51.520;6.818;2022-09-09T18:21:00;100372.25;;;17.64;88.38
4528;BME280;62320;51.520;6.818;2022-09-09T18:26:10;100390.41;;;17.69;89.88
4528;BME280;62320;51.520;6.818;2022-09-09T18:31:14;100382.66;;;17.66;88.60
4528;BME280;62320;51.520;6.818;2022-09-09T18:36:25;100401.88;;;17.65;90.40
4528;BME280;62320;51.520;6.818;2022-09-09T18:41:30;100409.81;;;17.62;90.41
4528;BME280;62320;51.520;6.818;2022-09-09T18:46:33;100413.28;;;17.62;89.49
4528;BME280;62320;51.520;6.818;2022-09-09T18:51:35;100418.56;;;17.61;90.39
4528;BME280;62320;51.520;6.818;2022-09-09T18:56:37;100416.91;;;17.58;90.43
4528;BME280;62320;51.520;6.818;2022-09-09T19:01:39;100423.13;;;17.56;90.02
4528;BME280;62320;51.520;6.818;2022-09-09T19:06:43;100440.28;;;17.63;91.16
4528;BME280;62320;51.520;6.818;2022-09-09T19:11:46;100443.09;;;17.57;89.05
4528;BME280;62320;51.520;6.818;2022-09-09T19:16:48;100458.56;;;17.63;88.95
4528;BME280;62320;51.520;6.818;2022-09-09T19:21:49;100462.97;;;17.62;89.94
4528;BME280;62320;51.520;6.818;2022-09-09T19:26:54;100471.78;;;17.60;88.01
4528;BME280;62320;51.520;6.818;2022-09-09T19:31:59;100475.13;;;17.63;86.92
4528;BME280;62320;51.520;6.818;2022-09-09T19:37:22;100459.16;;;17.45;86.96
4528;BME280;62320;51.520;6.818;2022-09-09T19:42:24;100479.09;;;17.49;87.96
4528;BME280;62320;51.520;6.818;2022-09-09T19:47:25;100477.56;;;17.42;86.69
4528;BME280;62320;51.520;6.818;2022-09-09T19:52:27;100476.84;;;17.37;86.17
4528;BME280;62320;51.520;6.818;2022-09-09T19:57:28;100471.13;;;17.26;86.93
4528;BME280;62320;51.520;6.818;2022-09-09T20:02:30;100449.16;;;17.05;87.72
4528;BME280;62320;51.520;6.818;2022-09-09T20:07:32;100479.50;;;17.09;88.18
4528;BME280;62320;51.520;6.818;2022-09-09T20:12:34;100492.97;;;16.95;90.53
4528;BME280;62320;51.520;6.818;2022-09-09T20:17:36;100496.53;;;16.93;89.94
4528;BME280;62320;51.520;6.818;2022-09-09T20:22:37;100487.16;;;16.86;89.48
4528;BME280;62320;51.520;6.818;2022-09-09T20:27:39;100472.72;;;16.74;89.65
4528;BME280;62320;51.520;6.818;2022-09-09T20:32:40;100510.59;;;16.89;90.09
4528;BME280;62320;51.520;6.818;2022-09-09T20:37:42;100510.50;;;16.92;90.89
4528;BME280;62320;51.520;6.818;2022-09-09T20:42:43;100516.63;;;16.91;91.73
4528;BME280;62320;51.520;6.818;2022-09-09T20:47:45;100519.16;;;16.94;91.57
4528;BME280;62320;51.520;6.818;2022-09-09T20:52:46;100460.91;;;16.63;90.08
4528;BME280;62320;51.520;6.818;2022-09-09T20:57:48;100512.19;;;16.94;92.69
4528;BME280;62320;51.520;6.818;2022-09-09T21:02:51;100506.69;;;17.02;93.12
4528;BME280;62320;51.520;6.818;2022-09-09T21:07:53;100509.31;;;17.02;92.71
4528;BME280;62320;51.520;6.818;2022-09-09T21:12:55;100517.41;;;16.94;90.38
4528;BME280;62320;51.520;6.818;2022-09-09T21:17:58;100510.97;;;17.04;92.80
4528;BME280;62320;51.520;6.818;2022-09-09T21:23:00;100512.03;;;16.99;89.81
4528;BME280;62320;51.520;6.818;2022-09-09T21:28:03;100505.91;;;17.00;91.37
4528;BME280;62320;51.520;6.818;2022-09-09T21:33:04;100512.88;;;16.99;91.87
4528;BME280;62320;51.520;6.818;2022-09-09T21:38:07;100520.91;;;16.93;90.73
4528;BME280;62320;51.520;6.818;2022-09-09T21:43:12;100518.91;;;17.01;89.43
4528;BME280;62320;51.520;6.818;2022-09-09T21:48:15;100529.31;;;17.03;89.62
4528;BME280;62320;51.520;6.818;2022-09-09T21:53:17;100521.66;;;16.97;88.74
4528;BME280;62320;51.520;6.818;2022-09-09T21:58:20;100524.31;;;16.95;88.86
4528;BME280;62320;51.520;6.818;2022-09-09T22:03:22;100513.19;;;16.89;89.91
4528;BME280;62320;51.520;6.818;2022-09-09T22:08:23;100510.81;;;16.81;90.39
4528;BME280;62320;51.520;6.818;2022-09-09T22:13:25;100520.97;;;16.90;89.38
4528;BME280;62320;51.520;6.818;2022-09-09T22:18:28;100506.31;;;16.86;91.62
4528;BME280;62320;51.520;6.818;2022-09-09T22:23:29;100512.59;;;16.81;91.71
4528;BME280;62320;51.520;6.818;2022-09-09T22:28:33;100503.97;;;16.77;91.65
4528;BME280;62320;51.520;6.818;2022-09-09T22:33:35;100501.41;;;16.76;90.74
4528;BME280;62320;51.520;6.818;2022-09-09T22:38:37;100502.03;;;16.84;91.38
4528;BME280;62320;51.520;6.818;2022-09-09T22:43:42;100504.63;;;16.84;93.50
4528;BME280;62320;51.520;6.818;2022-09-09T22:48:44;100510.81;;;16.81;92.07
4528;BME280;62320;51.520;6.818;2022-09-09T22:53:46;100511.84;;;16.76;92.67
4528;BME280;62320;51.520;6.818;2022-09-09T22:58:52;100497.63;;;16.57;91.05
4528;BME280;62320;51.520;6.818;2022-09-09T23:03:56;100516.53;;;16.65;92.82
4528;BME280;62320;51.520;6.818;2022-09-09T23:09:02;100512.63;;;16.49;92.09
4528;BME280;62320;51.520;6.818;2022-09-09T23:14:06;100522.84;;;16.56;91.70
4528;BME280;62320;51.520;6.818;2022-09-09T23:19:14;100515.13;;;16.53;92.47
4528;BME280;62320;51.520;6.818;2022-09-09T23:24:16;100521.34;;;16.48;91.79
4528;BME280;62320;51.520;6.818;2022-09-09T23:29:18;100516.31;;;16.40;92.83
4528;BME280;62320;51.520;6.818;2022-09-09T23:34:19;100527.59;;;16.42;88.90
4528;BME280;62320;51.520;6.818;2022-09-09T23:39:20;100538.88;;;16.42;89.40
4528;BME280;62320;51.520;6.818;2022-09-09T23:44:23;100545.00;;;16.41;89.34
4528;BME280;62320;51.520;6.818;2022-09-09T23:49:24;100542.41;;;16.40;90.60
4528;BME280;62320;51.520;6.818;2022-09-09T23:54:26;100536.25;;;16.42;90.14
4528;BME280;62320;51.520;6.818;2022-09-09T23:59:29;100541.59;;;16.39;90.76
